Time;durP1;ratioP1;P1;durP2;ratioP2;P2;SDS_P1;SDS_P2;PMS_P1;PMS_P2;Temp;Humidity;BMP_temperature;BMP_pressure;BME280_temperature;BME280_humidity;BME280_pressure;Samples;Min_cycle;Max_cycle;Signal;HPM_P1;HPM_P2
2022/03/23 00:00:51;;;;;;;82.80;43.50;;;;;;;3.17;51.72;103021.55;1703723;82;21102;-74
2022/03/23 00:03:19;;;;;;;83.97;44.98;;;;;;;3.15;51.83;103015.30;1678754;83;21224;-74
2022/03/23 00:05:46;;;;;;;85.97;42.55;;;;;;;3.15;51.91;103015.70;1660737;84;21091;-74
2022/03/23 00:08:14;;;;;;;80.80;42.53;;;;;;;3.14;51.88;103013.89;1661408;84;21734;-73
2022/03/23 00:10:41;;;;;;;71.95;42.70;;;;;;;3.13;51.91;103012.95;1660967;85;21680;-74
2022/03/23 00:13:09;;;;;;;79.92;44.48;;;;;;;3.12;51.98;103012.44;1660466;84;21051;-74
2022/03/23 00:15:36;;;;;;;77.60;43.55;;;;;;;3.10;52.02;103008.78;1660492;85;21587;-73
2022/03/23 00:18:03;;;;;;;84.00;44.38;;;;;;;3.08;52.08;103008.64;1660091;84;21330;-73
2022/03/23 00:20:31;;;;;;;86.37;42.33;;;;;;;3.07;52.10;103008.09;1661319;85;20995;-73
2022/03/23 00:22:59;;;;;;;82.00;42.13;;;;;;;3.07;52.15;103004.59;1646893;85;22605;-73
2022/03/23 00:25:26;;;;;;;79.30;43.13;;;;;;;3.05;52.15;102997.03;1674762;84;21046;-74
2022/03/23 00:27:53;;;;;;;78.37;43.38;;;;;;;3.00;52.17;102995.30;1660285;84;21070;-74
2022/03/23 00:30:19;;;;;;;77.47;42.60;;;;;;;3.05;52.23;102998.34;1680564;83;21600;-74
2022/03/23 00:32:46;;;;;;;79.30;43.25;;;;;;;3.04;52.25;103000.39;1646278;85;21319;-74
2022/03/23 00:35:13;;;;;;;79.10;40.92;;;;;;;3.04;52.23;102993.52;1706973;82;23018;-74
2022/03/23 00:37:40;;;;;;;78.22;43.40;;;;;;;3.06;52.21;102987.13;1713550;82;21583;-74
2022/03/23 00:40:09;;;;;;;89.65;44.23;;;;;;;2.87;52.17;102950.36;1711113;82;21076;-74
2022/03/23 00:42:35;;;;;;;91.45;46.00;;;;;;;3.09;52.22;102987.03;1707096;82;21104;-74
2022/03/23 00:45:04;;;;;;;88.72;47.03;;;;;;;3.08;52.23;102980.02;1706538;82;21060;-74
2022/03/23 00:47:30;;;;;;;88.00;45.88;;;;;;;3.08;52.27;102982.62;1707934;82;21823;-74
2022/03/23 00:49:57;;;;;;;83.90;43.48;;;;;;;3.06;52.33;102978.03;1707500;82;22352;-73
2022/03/23 00:52:24;;;;;;;82.33;44.42;;;;;;;3.04;52.34;102974.38;1707531;82;21698;-74
2022/03/23 00:54:51;;;;;;;83.85;43.58;;;;;;;3.02;52.37;102974.27;1707375;82;21120;-73
2022/03/23 00:57:18;;;;;;;78.80;43.55;;;;;;;3.01;52.45;102971.52;1707348;82;21081;-74
2022/03/23 00:59:44;;;;;;;82.97;43.68;;;;;;;2.99;52.49;102963.56;1662701;84;22976;-73
2022/03/23 01:02:12;;;;;;;78.37;41.10;;;;;;;2.85;52.47;102949.67;1660935;84;21324;-74
2022/03/23 01:04:39;;;;;;;80.70;44.23;;;;;;;2.96;52.52;102964.57;1706131;82;21084;-74
2022/03/23 01:07:06;;;;;;;78.02;42.23;;;;;;;2.95;52.57;102961.83;1709203;82;21101;-74
2022/03/23 01:09:33;;;;;;;85.30;41.73;;;;;;;2.94;52.64;102960.02;1706883;82;21088;-74
2022/03/23 01:12:00;;;;;;;75.97;40.73;;;;;;;2.80;52.59;102937.56;1725229;82;21699;-74
2022/03/23 01:14:26;;;;;;;86.00;42.80;;;;;;;2.92;52.68;102955.58;1727642;81;20998;-75
2022/03/23 01:16:53;;;;;;;78.25;43.05;;;;;;;2.90;52.74;102949.32;1696736;83;21603;-75
2022/03/23 01:19:22;;;;;;;71.92;42.62;;;;;;;2.90;52.88;102949.72;1721560;81;21081;-74
2022/03/23 01:21:49;;;;;;;80.65;44.20;;;;;;;2.88;52.91;102951.27;1726225;81;21539;-75
2022/03/23 01:24:15;;;;;;;85.50;44.67;;;;;;;2.85;52.96;102946.70;1727320;81;21128;-74
2022/03/23 01:26:42;;;;;;;76.35;42.67;;;;;;;2.84;53.08;102944.86;1723936;81;21076;-74
2022/03/23 01:29:08;;;;;;;78.30;43.02;;;;;;;2.83;53.10;102952.13;1701351;83;21108;-73
2022/03/23 01:31:36;;;;;;;77.20;43.25;;;;;;;2.84;53.30;102947.47;1724607;81;21083;-73
2022/03/23 01:34:03;;;;;;;81.65;45.10;;;;;;;2.82;53.43;102950.32;1720627;81;21156;-74
2022/03/23 01:36:30;;;;;;;89.42;45.45;;;;;;;2.78;53.56;102945.98;1723734;83;21931;-73
2022/03/23 01:38:57;;;;;;;87.10;46.88;;;;;;;2.72;53.61;102942.42;1696637;83;21460;-73
2022/03/23 01:41:24;;;;;;;92.80;47.10;;;;;;;2.64;53.68;102935.63;1727786;81;21069;-74
2022/03/23 01:43:51;;;;;;;82.75;46.13;;;;;;;2.50;53.94;102920.97;1690013;81;21594;-73
2022/03/23 01:46:19;;;;;;;85.92;46.73;;;;;;;2.50;54.14;102931.36;1725272;81;21403;-74
2022/03/23 01:48:46;;;;;;;88.87;45.50;;;;;;;2.45;54.36;102928.72;1724552;81;22393;-74
2022/03/23 01:51:13;;;;;;;85.72;47.70;;;;;;;2.38;54.36;102933.20;1701656;83;21089;-74
2022/03/23 01:53:41;;;;;;;89.45;46.68;;;;;;;2.27;54.58;102921.44;1722836;81;21609;-73
2022/03/23 01:56:11;;;;;;;94.83;48.40;;;;;;;2.30;54.70;102929.50;1706423;82;21109;-73
2022/03/23 01:58:38;;;;;;;96.05;47.80;;;;;;;2.27;54.89;102931.84;1738219;80;21012;-74
2022/03/23 02:01:04;;;;;;;95.67;47.90;;;;;;;2.20;55.00;102932.42;1682902;83;21744;-73
2022/03/23 02:03:31;;;;;;;90.75;46.92;;;;;;;2.14;55.15;102939.25;1697816;82;21635;-73
2022/03/23 02:05:58;;;;;;;83.78;46.48;;;;;;;1.98;55.15;102910.90;1676080;84;21132;-74
2022/03/23 02:08:25;;;;;;;84.65;46.30;;;;;;;2.12;55.22;102936.50;1724693;81;21857;-74
2022/03/23 02:10:51;;;;;;;84.52;45.55;;;;;;;2.14;55.16;102932.36;1725583;81;21484;-74
2022/03/23 02:13:18;;;;;;;90.85;47.38;;;;;;;2.14;55.12;102931.45;1723612;81;21954;-74
2022/03/23 02:15:45;;;;;;;81.12;43.75;;;;;;;2.18;55.19;102925.77;1721934;81;21081;-74
2022/03/23 02:18:12;;;;;;;74.72;39.92;;;;;;;2.25;55.15;102928.55;1724302;81;21571;-74
2022/03/23 02:20:39;;;;;;;79.72;42.17;;;;;;;2.28;55.15;102924.55;1727971;81;21084;-74
2022/03/23 02:23:05;;;;;;;76.55;42.80;;;;;;;2.30;55.00;102916.50;1732894;81;21074;-74
2022/03/23 02:25:32;;;;;;;84.85;42.30;;;;;;;2.30;55.00;102915.60;1735018;80;21264;-74
2022/03/23 02:27:59;;;;;;;74.22;41.18;;;;;;;2.22;55.01;102906.19;1732166;81;21044;-74
2022/03/23 02:30:25;;;;;;;80.87;42.88;;;;;;;2.27;55.06;102916.60;1702650;82;21065;-74
2022/03/23 02:32:52;;;;;;;76.05;43.25;;;;;;;2.17;55.17;102902.24;1696659;83;21110;-74
2022/03/23 02:35:19;;;;;;;76.85;43.02;;;;;;;2.21;55.12;102910.45;1721632;81;21524;-75
2022/03/23 02:37:46;;;;;;;69.77;39.30;;;;;;;2.20;55.31;102915.13;1728490;81;21744;-75
2022/03/23 02:40:13;;;;;;;72.78;41.63;;;;;;;2.19;55.33;102918.88;1733233;81;21022;-75
2022/03/23 02:42:40;;;;;;;73.02;40.17;;;;;;;2.19;55.33;102917.59;1725018;81;21104;-74
2022/03/23 02:45:07;;;;;;;75.30;40.15;;;;;;;2.18;55.35;102921.87;1724406;81;21524;-74
2022/03/23 02:47:34;;;;;;;72.95;39.13;;;;;;;2.16;55.35;102917.28;1732128;81;21112;-74
2022/03/23 02:50:01;;;;;;;69.90;39.38;;;;;;;2.18;55.23;102917.04;1733858;82;21749;-74
2022/03/23 02:52:28;;;;;;;75.87;41.02;;;;;;;2.19;55.30;102918.48;1723227;81;21085;-74
2022/03/23 03:03:24;;;;;;;75.40;40.15;;;;;;;2.16;55.45;102910.43;1736695;80;23566;-74
2022/03/23 03:05:51;;;;;;;76.62;40.80;;;;;;;1.98;55.38;102884.92;1743294;80;21053;-74
2022/03/23 03:10:55;;;;;;;82.90;42.40;;;;;;;2.09;55.48;102915.42;1700718;82;21086;-74
2022/03/23 03:13:22;;;;;;;76.35;40.00;;;;;;;2.07;55.54;102908.27;1696710;83;21101;-74
2022/03/23 03:15:49;;;;;;;82.72;43.08;;;;;;;1.92;55.52;102886.95;1711313;82;21735;-74
2022/03/23 03:18:15;;;;;;;87.53;44.33;;;;;;;2.05;55.61;102910.71;1711227;82;21110;-74
2022/03/23 03:20:42;;;;;;;90.75;44.13;;;;;;;2.02;55.63;102909.11;1711583;82;21057;-74
2022/03/23 03:23:11;;;;;;;82.20;44.20;;;;;;;2.01;55.62;102903.77;1712372;82;22281;-74
2022/03/23 03:25:38;;;;;;;82.97;44.50;;;;;;;2.00;55.63;102902.86;1711580;82;21088;-74
2022/03/23 03:28:04;;;;;;;88.45;44.38;;;;;;;1.98;55.72;102901.80;1711389;82;21904;-74
2022/03/23 03:30:31;;;;;;;78.78;40.78;;;;;;;1.97;55.81;102902.95;1710920;82;21064;-74
2022/03/23 03:32:58;;;;;;;74.25;39.85;;;;;;;1.95;55.75;102900.20;1701207;82;21073;-74
2022/03/23 03:35:24;;;;;;;77.40;41.80;;;;;;;1.97;55.79;102900.36;1690893;82;21068;-74
2022/03/23 03:37:51;;;;;;;80.30;40.60;;;;;;;1.98;55.86;102894.41;1738239;81;21092;-74
2022/03/23 03:40:18;;;;;;;78.78;40.45;;;;;;;1.99;55.80;102900.11;1713051;82;21696;-74
2022/03/23 03:42:45;;;;;;;73.17;39.35;;;;;;;1.99;55.79;102897.52;1745284;79;21108;-74
2022/03/23 03:45:12;;;;;;;70.75;38.60;;;;;;;2.00;55.80;102895.47;1747532;80;21052;-74
2022/03/23 03:47:38;;;;;;;72.12;40.08;;;;;;;1.97;55.78;102886.07;1701432;82;21122;-74
2022/03/23 03:50:07;;;;;;;76.62;41.40;;;;;;;2.07;55.80;102901.77;1730727;81;21088;-74
2022/03/23 03:52:34;;;;;;;84.32;48.33;;;;;;;2.08;55.74;102907.11;1707235;83;21772;-74
2022/03/23 03:55:00;;;;;;;70.15;39.70;;;;;;;2.08;55.68;102899.32;1729956;82;21608;-74
2022/03/23 03:57:27;;;;;;;66.60;37.48;;;;;;;2.09;55.69;102906.33;1700367;82;21089;-74
2022/03/23 03:59:54;;;;;;;77.80;40.15;;;;;;;2.11;55.63;102907.38;1723213;81;21077;-74
2022/03/23 04:02:21;;;;;;;72.40;40.50;;;;;;;2.10;55.68;102908.53;1711942;81;21084;-75
2022/03/23 04:04:47;;;;;;;83.35;43.70;;;;;;;2.08;55.72;102906.17;1695638;82;21341;-76
2022/03/23 04:07:14;;;;;;;71.35;38.95;;;;;;;2.06;55.71;102905.13;1690523;82;21081;-75
2022/03/23 04:09:41;;;;;;;73.00;37.65;;;;;;;2.04;55.77;102908.87;1686508;83;21131;-75
2022/03/23 04:12:09;;;;;;;77.72;41.53;;;;;;;2.00;55.82;102907.16;1681670;83;21061;-74
2022/03/23 04:14:35;;;;;;;78.37;41.65;;;;;;;1.96;55.88;102908.55;1689608;82;21080;-74
2022/03/23 04:17:03;;;;;;;69.97;39.13;;;;;;;1.93;55.99;102912.14;1689678;82;21805;-74
2022/03/23 04:19:29;;;;;;;75.42;40.65;;;;;;;1.90;55.98;102910.57;1674097;83;22291;-74
2022/03/23 04:21:56;;;;;;;69.45;37.88;;;;;;;1.86;55.99;102911.02;1684933;83;21100;-74
2022/03/23 04:24:23;;;;;;;78.25;38.80;;;;;;;1.84;56.02;102907.37;1687828;83;21049;-74
2022/03/23 04:26:50;;;;;;;75.12;39.80;;;;;;;1.77;56.05;102899.40;1691518;83;21129;-74
2022/03/23 04:29:16;;;;;;;81.40;38.55;;;;;;;1.84;56.10;102919.05;1690565;84;22787;-74
2022/03/23 04:31:43;;;;;;;68.65;36.10;;;;;;;1.89;56.12;102916.52;1670283;84;21122;-74
2022/03/23 04:34:10;;;;;;;63.83;36.70;;;;;;;1.86;56.01;102900.63;1704617;83;21037;-74
2022/03/23 04:36:36;;;;;;;65.52;36.83;;;;;;;1.95;56.03;102904.10;1705984;82;21182;-74
2022/03/23 04:39:03;;;;;;;69.20;37.20;;;;;;;2.00;56.02;102911.95;1702676;82;21064;-74
2022/03/23 04:41:30;;;;;;;76.95;39.33;;;;;;;2.01;56.00;102907.66;1701045;82;21696;-74
2022/03/23 04:43:56;;;;;;;80.03;37.58;;;;;;;2.01;56.00;102911.20;1709109;81;21071;-73
2022/03/23 04:46:23;;;;;;;62.80;36.03;;;;;;;2.04;55.94;102907.57;1731079;82;21112;-74
2022/03/23 04:48:50;;;;;;;74.35;38.17;;;;;;;2.08;55.93;102907.11;1704910;82;21143;-74
2022/03/23 04:51:17;;;;;;;67.25;36.33;;;;;;;2.22;55.92;102904.89;1732375;82;21096;-74
2022/03/23 04:53:43;;;;;;;62.75;36.30;;;;;;;2.38;55.81;102900.72;1738124;82;21745;-75
2022/03/23 04:56:11;;;;;;;72.22;36.75;;;;;;;2.57;55.64;102910.73;1736307;81;21058;-81
2022/03/23 04:58:37;;;;;;;64.90;38.73;;;;;;;2.72;55.40;102911.22;1703883;82;21084;-75
2022/03/23 05:01:04;;;;;;;71.33;38.33;;;;;;;2.84;55.14;102912.35;1721945;81;21647;-76
2022/03/23 05:03:31;;;;;;;71.90;37.60;;;;;;;2.94;54.95;102910.19;1733522;80;21068;-76
2022/03/23 05:05:57;;;;;;;68.97;38.60;;;;;;;3.02;54.82;102903.08;1742496;81;21788;-76
2022/03/23 05:08:24;;;;;;;66.17;37.40;;;;;;;3.11;54.63;102897.40;1740772;82;21062;-76
2022/03/23 05:10:51;;;;;;;70.47;38.98;;;;;;;3.23;54.41;102899.81;1736133;81;21337;-76
2022/03/23 05:13:18;;;;;;;79.42;48.55;;;;;;;3.36;54.23;102899.22;1746713;80;21582;-75
2022/03/23 05:15:45;;;;;;;102.70;62.93;;;;;;;3.50;54.07;102901.73;1743428;80;21056;-75
2022/03/23 05:18:12;;;;;;;79.95;49.48;;;;;;;3.62;53.87;102900.58;1721495;82;21779;-75
2022/03/23 05:20:39;;;;;;;114.47;68.22;;;;;;;3.75;53.66;102903.88;1704816;83;21077;-75
2022/03/23 05:23:06;;;;;;;84.58;50.67;;;;;;;3.87;53.51;102904.95;1725529;81;21092;-75
2022/03/23 05:25:32;;;;;;;80.72;40.08;;;;;;;3.98;53.25;102901.58;1678696;84;21159;-75
2022/03/23 05:27:59;;;;;;;69.77;37.70;;;;;;;4.09;53.04;102898.20;1702604;82;21087;-75
2022/03/23 05:30:25;;;;;;;68.35;37.40;;;;;;;4.20;52.84;102894.28;1726569;81;21863;-75
2022/03/23 05:32:52;;;;;;;59.48;35.48;;;;;;;4.29;52.62;102896.38;1733671;82;21105;-75
2022/03/23 05:35:19;;;;;;;65.55;37.05;;;;;;;4.38;52.55;102894.55;1715174;82;21050;-75
2022/03/23 05:37:45;;;;;;;57.67;33.53;;;;;;;4.45;52.59;102894.69;1720757;81;21675;-75
2022/03/23 05:40:12;;;;;;;60.03;35.10;;;;;;;4.48;52.37;102893.22;1719364;81;21072;-75
2022/03/23 05:42:39;;;;;;;61.08;34.35;;;;;;;4.51;52.15;102899.11;1729590;81;21735;-75
2022/03/23 05:45:06;;;;;;;64.42;35.60;;;;;;;4.56;52.07;102899.47;1725464;82;21096;-76
2022/03/23 05:47:34;;;;;;;65.57;35.75;;;;;;;4.59;51.92;102899.34;1751013;81;21734;-80
2022/03/23 05:50:01;;;;;;;84.05;45.70;;;;;;;4.63;51.94;102895.30;1730960;81;21092;-75
2022/03/23 05:52:27;;;;;;;237.68;108.67;;;;;;;4.64;51.99;102886.30;1689983;82;21848;-80
2022/03/23 05:54:54;;;;;;;98.05;54.18;;;;;;;4.66;51.93;102892.55;1728116;82;21740;-77
2022/03/23 05:57:21;;;;;;;69.90;39.40;;;;;;;4.66;51.78;102895.56;1735310;80;22236;-77
2022/03/23 05:59:47;;;;;;;72.10;38.15;;;;;;;4.66;51.57;102899.08;1738184;80;21084;-76
2022/03/23 06:02:14;;;;;;;64.17;37.10;;;;;;;4.64;51.51;102901.95;1714401;81;22226;-77
2022/03/23 06:04:40;;;;;;;68.70;39.38;;;;;;;4.67;51.53;102903.89;1690662;82;21022;-76
2022/03/23 06:07:07;;;;;;;61.70;38.83;;;;;;;4.68;51.47;102905.33;1667664;84;21638;-79
2022/03/23 06:09:34;;;;;;;71.47;40.73;;;;;;;4.71;51.43;102903.76;1732623;80;21158;-80
2022/03/23 06:12:04;;;;;;;71.17;40.83;;;;;;;4.73;51.47;102908.34;1729992;81;21052;-81
2022/03/23 06:14:29;;;;;;;77.72;40.85;;;;;;;4.75;51.44;102905.46;1741003;81;21135;-80
2022/03/23 06:16:55;;;;;;;85.07;42.25;;;;;;;4.79;51.60;102902.72;1734492;81;21071;-81
2022/03/23 06:19:22;;;;;;;81.65;44.42;;;;;;;4.82;51.67;102903.89;1743998;80;21723;-81
2022/03/23 06:21:49;;;;;;;77.00;43.70;;;;;;;4.89;51.73;102904.39;1747950;80;21016;-81
2022/03/23 06:24:15;;;;;;;79.40;44.13;;;;;;;4.94;51.74;102901.37;1730213;81;21328;-80
2022/03/23 06:26:42;;;;;;;74.65;42.48;;;;;;;4.99;51.68;102906.58;1730840;80;21099;-79
2022/03/23 06:29:08;;;;;;;79.25;41.50;;;;;;;5.04;51.62;102906.55;1727728;80;21079;-81
2022/03/23 06:31:35;;;;;;;77.67;42.33;;;;;;;5.11;51.47;102907.07;1741731;80;22574;-80
2022/03/23 06:34:04;;;;;;;96.40;41.40;;;;;;;5.18;51.42;102911.61;1708753;83;21057;-76
2022/03/23 06:36:30;;;;;;;80.57;40.80;;;;;;;5.28;51.37;102914.56;1696827;82;21040;-75
2022/03/23 06:38:57;;;;;;;76.35;41.80;;;;;;;5.37;51.30;102911.80;1699010;82;21315;-74
2022/03/23 06:41:24;;;;;;;80.12;41.75;;;;;;;5.46;51.20;102913.81;1665113;84;21066;-75
2022/03/23 06:43:50;;;;;;;70.55;39.80;;;;;;;5.57;51.16;102910.77;1690348;84;21738;-76
2022/03/23 06:46:17;;;;;;;70.45;38.60;;;;;;;5.65;50.95;102906.69;1740744;80;22392;-76
2022/03/23 06:48:45;;;;;;;72.87;39.10;;;;;;;5.77;50.83;102904.13;1741120;80;21099;-75
2022/03/23 06:51:13;;;;;;;75.70;37.85;;;;;;;5.86;50.59;102905.25;1746437;80;21147;-76
2022/03/23 06:53:40;;;;;;;90.62;38.15;;;;;;;5.96;50.39;102905.20;1719701;82;21491;-75
2022/03/23 06:56:07;;;;;;;70.57;37.60;;;;;;;6.07;50.30;102902.53;1707907;82;21847;-77
2022/03/23 06:58:33;;;;;;;68.15;37.90;;;;;;;6.17;50.20;102903.75;1703209;82;21132;-75
2022/03/23 07:01:00;;;;;;;66.15;37.70;;;;;;;6.27;50.06;102903.68;1698142;82;22347;-76
2022/03/23 07:03:27;;;;;;;68.07;39.45;;;;;;;6.39;50.05;102905.02;1703745;82;22191;-76
2022/03/23 07:05:54;;;;;;;76.45;40.58;;;;;;;6.48;50.11;102907.02;1708971;82;21092;-76
2022/03/23 07:11:06;;;;;;;70.85;40.08;;;;;;;6.68;50.12;102908.55;1709340;82;21089;-76
2022/03/23 07:13:33;;;;;;;67.22;38.50;;;;;;;6.77;49.96;102902.66;1712092;81;21064;-76
2022/03/23 07:15:59;;;;;;;62.90;38.98;;;;;;;6.86;49.67;102897.63;1709588;82;21171;-76
2022/03/23 07:18:27;;;;;;;76.40;39.65;;;;;;;6.93;49.58;102899.50;1709267;82;21108;-75
2022/03/23 07:20:54;;;;;;;66.47;40.48;;;;;;;7.04;49.50;102899.37;1709492;82;22638;-76
2022/03/23 07:23:20;;;;;;;69.70;39.20;;;;;;;7.13;49.43;102908.84;1709323;82;21010;-76
2022/03/23 07:25:47;;;;;;;59.18;35.48;;;;;;;7.20;49.28;102903.22;1702278;83;21043;-76
2022/03/23 07:28:14;;;;;;;59.93;36.48;;;;;;;7.29;48.99;102908.23;1721071;82;21102;-76
2022/03/23 07:30:41;;;;;;;64.30;36.17;;;;;;;7.37;48.78;102898.31;1731400;81;21106;-76
2022/03/23 07:33:09;;;;;;;58.50;33.85;;;;;;;7.46;48.56;102902.91;1698077;82;40635;-76
2022/03/23 07:35:36;;;;;;;66.37;35.70;;;;;;;7.54;48.34;102903.45;1702194;82;21542;-76
2022/03/23 07:38:02;;;;;;;49.58;31.50;;;;;;;7.63;48.13;102902.81;1715725;82;21642;-75
2022/03/23 07:40:29;;;;;;;56.35;31.50;;;;;;;7.72;47.69;102906.50;1721235;82;21087;-75
2022/03/23 07:42:56;;;;;;;52.58;31.02;;;;;;;7.81;47.45;102901.91;1712395;81;21105;-75
2022/03/23 07:45:23;;;;;;;62.13;33.28;;;;;;;7.90;46.99;102898.63;1707897;82;21738;-76
2022/03/23 07:47:49;;;;;;;48.25;30.08;;;;;;;8.00;46.86;102896.24;1691753;84;21577;-76
2022/03/23 07:50:16;;;;;;;50.45;32.17;;;;;;;8.13;46.77;102895.39;1711311;82;21644;-77
2022/03/23 07:52:42;;;;;;;53.35;31.52;;;;;;;8.23;46.46;102893.89;1709465;83;21062;-76
2022/03/23 07:55:09;;;;;;;59.05;30.70;;;;;;;8.30;46.04;102889.99;1709054;83;21081;-76
2022/03/23 07:57:36;;;;;;;61.80;31.02;;;;;;;8.41;45.82;102897.27;1711604;82;22692;-74
2022/03/23 08:00:06;;;;;;;54.05;30.50;;;;;;;8.49;45.58;102897.44;1683977;83;21048;-75
2022/03/23 08:02:33;;;;;;;51.18;29.30;;;;;;;8.59;45.47;102891.98;1702378;82;20998;-74
2022/03/23 08:05:00;;;;;;;51.02;31.57;;;;;;;8.69;45.10;102893.51;1696759;82;21085;-74
2022/03/23 08:07:27;;;;;;;50.70;30.65;;;;;;;8.80;44.92;102891.61;1748146;80;21613;-75
2022/03/23 08:09:54;;;;;;;52.50;31.00;;;;;;;8.87;44.84;102884.23;1751737;80;22183;-75
2022/03/23 08:12:21;;;;;;;54.13;29.63;;;;;;;8.95;44.73;102890.92;1743062;80;21068;-75
2022/03/23 08:14:47;;;;;;;45.28;30.30;;;;;;;9.02;44.41;102889.59;1745394;80;21079;-75
2022/03/23 08:17:14;;;;;;;56.65;29.75;;;;;;;9.10;44.21;102891.02;1745437;81;21151;-75
2022/03/23 08:19:41;;;;;;;49.20;30.92;;;;;;;9.18;44.05;102890.59;1740232;80;21064;-74
2022/03/23 08:22:08;;;;;;;47.58;29.70;;;;;;;9.24;44.03;102886.66;1738275;81;21797;-74
2022/03/23 08:24:35;;;;;;;45.23;27.93;;;;;;;9.35;43.73;102889.98;1756403;79;21835;-74
2022/03/23 08:27:02;;;;;;;45.90;26.62;;;;;;;9.46;43.47;102886.31;1737348;80;21602;-75
2022/03/23 08:29:29;;;;;;;48.40;27.62;;;;;;;9.57;43.11;102888.29;1736107;80;21188;-75
2022/03/23 08:31:56;;;;;;;38.53;25.17;;;;;;;9.70;42.62;102900.12;1745498;80;21068;-75
2022/03/23 08:34:22;;;;;;;46.10;27.93;;;;;;;9.85;42.52;102887.02;1740836;80;21741;-75
2022/03/23 08:36:49;;;;;;;50.40;28.47;;;;;;;9.97;42.08;102893.85;1745555;80;21058;-75
2022/03/23 08:39:16;;;;;;;53.73;28.23;;;;;;;10.05;42.01;102884.70;1748460;80;21093;-74
2022/03/23 08:41:43;;;;;;;52.08;29.45;;;;;;;10.14;41.85;102890.94;1737488;80;21101;-76
2022/03/23 08:44:10;;;;;;;47.53;27.15;;;;;;;10.21;41.66;102888.77;1740677;81;21059;-76
2022/03/23 08:46:36;;;;;;;40.85;26.55;;;;;;;10.30;41.40;102885.42;1736598;81;22614;-76
2022/03/23 08:49:03;;;;;;;37.65;24.75;;;;;;;10.41;40.75;102886.45;1744515;81;21498;-76
2022/03/23 08:51:30;;;;;;;45.80;23.47;;;;;;;10.50;40.50;102887.00;1746108;79;21318;-76
2022/03/23 08:53:56;;;;;;;43.13;26.37;;;;;;;10.57;40.03;102877.34;1736962;80;21060;-75
2022/03/23 08:56:23;;;;;;;41.33;27.17;;;;;;;10.62;39.82;102882.48;1734565;80;21053;-76
2022/03/23 08:58:49;;;;;;;37.40;25.25;;;;;;;10.67;39.69;102879.69;1711267;82;21748;-75
2022/03/23 09:01:17;;;;;;;44.40;25.20;;;;;;;10.73;39.82;102871.66;1692258;82;21142;-75
2022/03/23 09:03:44;;;;;;;46.92;26.42;;;;;;;10.79;39.66;102881.22;1695454;82;21579;-76
2022/03/23 09:06:11;;;;;;;38.75;24.75;;;;;;;10.85;39.43;102878.55;1708466;81;21068;-75
2022/03/23 09:08:38;;;;;;;46.73;25.75;;;;;;;10.93;39.15;102878.98;1697941;82;21198;-75
2022/03/23 09:11:07;;;;;;;48.70;25.15;;;;;;;10.98;38.90;102866.99;1693669;82;21222;-76
2022/03/23 09:13:34;;;;;;;37.75;24.52;;;;;;;11.04;38.72;102871.70;1701240;82;21536;-76
2022/03/23 09:16:00;;;;;;;33.45;22.67;;;;;;;11.09;38.58;102867.20;1700406;82;21076;-75
2022/03/23 09:18:28;;;;;;;39.95;25.08;;;;;;;11.15;38.34;102868.34;1697291;84;21073;-76
2022/03/23 09:20:55;;;;;;;41.70;24.37;;;;;;;11.21;38.23;102866.07;1712661;82;21067;-76
2022/03/23 09:23:22;;;;;;;35.95;24.10;;;;;;;11.26;38.16;102862.88;1699233;82;21791;-75
2022/03/23 09:25:49;;;;;;;31.97;21.85;;;;;;;11.33;38.07;102867.16;1698153;82;21087;-76
2022/03/23 09:28:16;;;;;;;34.15;19.48;;;;;;;11.38;37.70;102864.37;1681761;83;21586;-76
2022/03/23 09:30:43;;;;;;;31.97;20.48;;;;;;;11.43;37.29;102854.58;1686760;84;21068;-76
2022/03/23 09:33:09;;;;;;;36.83;23.05;;;;;;;11.53;36.97;102866.95;1699416;82;21077;-76
2022/03/23 09:35:36;;;;;;;38.53;21.15;;;;;;;11.64;36.91;102860.12;1697941;83;21824;-75
2022/03/23 09:38:05;;;;;;;30.57;19.05;;;;;;;11.75;36.47;102857.14;1716606;82;21122;-76
2022/03/23 09:40:32;;;;;;;33.20;20.95;;;;;;;11.83;36.15;102856.73;1702077;82;21097;-76
2022/03/23 09:43:05;;;;;;;36.63;22.22;;;;;;;11.89;35.80;102856.16;1705407;82;21079;-76
2022/03/23 09:45:46;;;;;;;34.33;21.45;;;;;;;11.93;35.66;102852.88;1704437;82;21085;-75
2022/03/23 09:48:09;;;;;;;33.35;21.97;;;;;;;12.03;35.55;102848.98;1703609;82;21725;-75
2022/03/23 09:50:36;;;;;;;40.35;24.37;;;;;;;12.14;35.39;102845.60;1705099;82;21642;-76
2022/03/23 09:53:03;;;;;;;34.75;20.62;;;;;;;12.19;35.14;102842.80;1707424;82;21092;-75
2022/03/23 09:55:33;;;;;;;41.08;20.37;;;;;;;12.24;35.16;102843.95;1704142;82;21509;-76
2022/03/23 09:58:01;;;;;;;37.98;21.35;;;;;;;12.30;34.94;102844.26;1704213;82;21011;-75
2022/03/23 10:00:38;;;;;;;37.88;22.70;;;;;;;12.36;34.83;102839.70;1704520;82;21778;-76
2022/03/23 10:03:13;;;;;;;46.88;24.00;;;;;;;12.43;34.80;102841.84;1740024;79;21147;-75
2022/03/23 10:05:57;;;;;;;35.25;24.25;;;;;;;12.49;34.73;102836.86;1735337;80;21128;-75
2022/03/23 10:09:14;;;;;;;32.90;21.77;;;;;;;12.56;34.47;102842.95;1731523;81;21081;-74
2022/03/23 10:12:07;;;;;;;34.05;22.82;;;;;;;12.58;34.37;102835.10;1696204;82;21074;-74
2022/03/23 10:15:25;;;;;;;36.20;23.20;;;;;;;12.56;34.37;102830.16;1731567;80;21865;-74
2022/03/23 10:18:23;;;;;;;38.20;22.90;;;;;;;12.54;33.71;102838.00;1746919;80;21283;-75
2022/03/23 10:20:51;;;;;;;32.50;24.85;;;;;;;12.48;33.86;102835.06;1741292;80;21123;-75
2022/03/23 10:23:22;;;;;;;34.08;22.37;;;;;;;12.44;33.99;102829.10;1674753;83;21619;-75
2022/03/23 10:25:49;;;;;;;34.18;23.95;;;;;;;12.43;33.87;102832.59;1727207;81;21053;-75
2022/03/23 10:28:17;;;;;;;35.08;25.35;;;;;;;12.40;33.85;102829.78;1733425;81;21706;-75
2022/03/23 10:30:45;;;;;;;36.75;25.50;;;;;;;12.43;33.94;102823.34;1738287;81;21101;-75
2022/03/23 10:33:23;;;;;;;38.67;23.10;;;;;;;12.43;33.94;102824.67;1726527;81;21080;-75
2022/03/23 10:35:50;;;;;;;38.30;25.27;;;;;;;12.48;33.93;102824.49;1732049;81;21645;-75
2022/03/23 10:38:19;;;;;;;44.83;26.42;;;;;;;12.54;33.82;102825.22;1731297;81;21045;-75
2022/03/23 10:40:49;;;;;;;39.95;25.17;;;;;;;12.57;33.78;102824.92;1724215;81;21725;-74
2022/03/23 10:43:25;;;;;;;43.08;26.68;;;;;;;12.60;33.77;102825.52;1724573;81;21165;-75
2022/03/23 10:45:53;;;;;;;43.73;26.77;;;;;;;12.61;33.86;102820.31;1722261;81;21046;-75
2022/03/23 10:48:20;;;;;;;40.23;25.15;;;;;;;12.62;33.73;102815.92;1732026;81;21057;-74
2022/03/23 10:50:57;;;;;;;50.85;28.38;;;;;;;12.61;33.92;102816.73;1728832;80;21084;-74
2022/03/23 10:53:41;;;;;;;44.80;26.80;;;;;;;12.59;34.03;102815.38;1728522;81;21727;-75
2022/03/23 10:56:08;;;;;;;;;;;;;;;12.57;33.94;102815.67;1739506;80;21085;-75
2022/03/23 10:58:35;;;;;;;38.85;24.65;;;;;;;12.56;33.78;102830.16;1741839;80;20472;-75
2022/03/23 11:01:06;;;;;;;37.85;24.92;;;;;;;12.51;33.74;102823.30;1725125;81;21120;-75
2022/03/23 11:03:43;;;;;;;36.30;23.73;;;;;;;12.50;33.26;102822.83;1698510;82;21567;-74
2022/03/23 11:06:12;;;;;;;38.10;24.55;;;;;;;12.49;33.50;102823.65;1718345;81;21767;-75
2022/03/23 11:08:39;;;;;;;37.05;23.67;;;;;;;12.46;33.25;102811.59;1702719;82;21637;-75
2022/03/23 11:16:50;;;;;;;38.75;24.15;;;;;;;12.54;33.11;102804.98;1631355;85;21128;-75
2022/03/23 11:19:24;;;;;;;39.90;27.27;;;;;;;12.59;33.25;102806.52;1658617;84;21795;-75
2022/03/23 11:22:02;;;;;;;46.08;28.60;;;;;;;12.66;33.53;102811.70;1667768;84;21746;-75
2022/03/23 11:24:43;;;;;;;56.63;34.15;;;;;;;12.70;33.92;102804.41;1673348;84;21195;-75
2022/03/23 11:27:13;;;;;;;62.90;38.17;;;;;;;12.69;34.32;102810.13;1650683;85;21238;-75
2022/03/23 11:29:40;;;;;;;58.52;36.85;;;;;;;12.59;34.66;102815.38;1626215;87;21128;-75
2022/03/23 11:32:10;;;;;;;63.78;37.20;;;;;;;12.47;35.13;102819.13;1692603;83;22591;-75
2022/03/23 11:34:37;;;;;;;57.43;35.63;;;;;;;12.37;35.46;102812.45;1631011;84;21109;-75
2022/03/23 11:37:06;;;;;;;52.33;35.83;;;;;;;12.18;36.03;102819.84;1651334;85;21163;-75